createdAt,value
2023-01-19T00:01:48.000Z,9.80
2023-01-19T00:04:18.625Z,8.10
2023-01-19T00:06:49.607Z,7.30
2023-01-19T00:09:22.152Z,7.90
2023-01-19T00:11:52.828Z,7.30
2023-01-19T00:14:26.400Z,6.50
2023-01-19T00:16:56.794Z,6.30
2023-01-19T00:19:27.635Z,6.50
2023-01-19T00:21:58.231Z,7.00
2023-01-19T00:24:28.696Z,7.40
2023-01-19T00:26:59.204Z,6.30
2023-01-19T00:29:33.450Z,6.30
2023-01-19T00:32:04.615Z,5.90
2023-01-19T00:34:39.518Z,4.70
2023-01-19T00:37:10.019Z,6.40
2023-01-19T00:39:40.732Z,6.00
2023-01-19T00:42:30.402Z,6.90
2023-01-19T00:45:00.872Z,5.90
2023-01-19T00:47:32.203Z,5.10
2023-01-19T00:50:02.655Z,6.10
2023-01-19T00:52:33.072Z,6.10
2023-01-19T00:55:03.924Z,6.50
2023-01-19T00:57:34.412Z,6.50
2023-01-19T01:00:07.120Z,7.70
2023-01-19T01:02:37.975Z,5.10
2023-01-19T01:05:09.586Z,6.00
2023-01-19T01:07:41.607Z,5.20
2023-01-19T01:10:14.423Z,6.50
2023-01-19T01:12:56.917Z,5.00
2023-01-19T01:15:29.945Z,5.10
2023-01-19T01:18:00.655Z,5.90
2023-01-19T01:20:33.662Z,5.30
2023-01-19T01:23:04.690Z,6.10
2023-01-19T01:25:37.782Z,5.30
2023-01-19T01:28:09.732Z,9.90
2023-01-19T01:30:41.153Z,5.10
2023-01-19T01:33:13.281Z,4.90
2023-01-19T01:35:44.107Z,8.10
2023-01-19T01:38:14.947Z,7.30
2023-01-19T01:40:45.896Z,5.70
2023-01-19T01:43:18.461Z,4.60
2023-01-19T01:45:49.519Z,10.70
2023-01-19T01:48:23.266Z,4.60
2023-01-19T01:51:14.833Z,6.10
2023-01-19T01:53:48.482Z,5.50
2023-01-19T01:56:22.679Z,8.60
2023-01-19T01:58:53.454Z,6.50
2023-01-19T02:01:41.966Z,4.90
2023-01-19T02:04:12.846Z,6.20
2023-01-19T02:07:01.141Z,6.00
2023-01-19T02:09:52.026Z,5.20
2023-01-19T02:12:41.228Z,7.70
2023-01-19T02:15:20.571Z,5.80
2023-01-19T02:17:51.126Z,4.40
2023-01-19T02:20:27.191Z,5.40
2023-01-19T02:23:03.223Z,7.80
2023-01-19T02:25:35.629Z,8.20
2023-01-19T02:28:07.643Z,7.30
2023-01-19T02:30:40.497Z,7.50
2023-01-19T02:33:10.935Z,5.00
2023-01-19T02:35:42.460Z,5.90
2023-01-19T02:38:14.853Z,7.40
2023-01-19T02:40:46.766Z,4.90
2023-01-19T02:43:21.049Z,5.60
2023-01-19T02:45:51.877Z,8.80
2023-01-19T02:48:23.306Z,4.90
2023-01-19T02:50:59.456Z,4.70
2023-01-19T02:54:04.273Z,6.80
2023-01-19T02:57:00.934Z,5.80
2023-01-19T02:59:44.952Z,6.00
2023-01-19T03:02:28.930Z,6.10
2023-01-19T03:05:17.295Z,5.10
2023-01-19T03:07:58.453Z,9.00
2023-01-19T03:10:40.377Z,6.70
2023-01-19T03:13:15.911Z,5.50
2023-01-19T03:15:50.885Z,5.00
2023-01-19T03:18:24.512Z,6.80
2023-01-19T03:21:00.442Z,8.30
2023-01-19T03:23:35.597Z,5.40
2023-01-19T03:26:09.535Z,6.20
2023-01-19T03:28:43.045Z,6.20
2023-01-19T03:31:17.653Z,5.60
2023-01-19T03:33:51.614Z,6.20
2023-01-19T03:36:27.922Z,6.20
2023-01-19T03:39:02.276Z,6.90
2023-01-19T03:41:35.232Z,6.10
2023-01-19T03:44:06.901Z,4.20
2023-01-19T03:46:37.788Z,6.80
2023-01-19T03:49:09.171Z,5.80
2023-01-19T03:51:40.647Z,6.50
2023-01-19T03:54:12.732Z,6.20
2023-01-19T03:56:43.648Z,8.10
2023-01-19T03:59:17.499Z,4.70
2023-01-19T04:01:47.988Z,6.00
2023-01-19T04:04:19.217Z,6.30
2023-01-19T04:06:49.953Z,5.90
2023-01-19T04:09:20.353Z,7.20
2023-01-19T04:11:51.424Z,6.70
2023-01-19T04:14:22.390Z,6.00
2023-01-19T04:16:52.816Z,6.10
2023-01-19T04:19:23.732Z,4.20
2023-01-19T04:21:55.384Z,5.10
2023-01-19T04:24:25.815Z,4.70
2023-01-19T04:26:56.535Z,5.40
2023-01-19T04:29:26.890Z,6.10
2023-01-19T04:31:57.720Z,4.90
2023-01-19T04:34:28.323Z,5.90
2023-01-19T04:36:58.957Z,4.20
2023-01-19T04:39:29.327Z,7.30
2023-01-19T04:42:00.769Z,9.50
2023-01-19T04:44:31.498Z,6.70
2023-01-19T04:47:02.883Z,5.60
2023-01-19T04:49:34.003Z,6.20
2023-01-19T04:52:07.804Z,6.20
2023-01-19T04:54:38.211Z,5.60
2023-01-19T04:57:08.616Z,7.10
2023-01-19T04:59:38.971Z,5.30
2023-01-19T05:02:09.669Z,8.90
2023-01-19T05:04:40.594Z,6.50
2023-01-19T05:07:11.271Z,5.30
2023-01-19T05:09:41.642Z,6.70
2023-01-19T05:12:12.552Z,5.70
2023-01-19T05:14:43.234Z,4.20
2023-01-19T05:17:14.291Z,5.40
2023-01-19T05:19:44.936Z,5.30
2023-01-19T05:22:16.075Z,5.40
2023-01-19T05:24:47.112Z,5.50
2023-01-19T05:27:17.561Z,6.20
2023-01-19T05:29:48.155Z,6.10
2023-01-19T05:32:18.947Z,8.90
2023-01-19T05:34:49.513Z,8.50
2023-01-19T05:37:20.536Z,6.90
2023-01-19T05:39:50.898Z,5.00
2023-01-19T05:42:21.523Z,8.50
2023-01-19T05:44:52.895Z,5.70
2023-01-19T05:47:23.287Z,15.90
2023-01-19T05:49:53.667Z,6.00
2023-01-19T05:52:25.036Z,5.20
2023-01-19T05:54:56.103Z,4.40
2023-01-19T05:57:26.525Z,10.10
2023-01-19T05:59:56.901Z,6.00
2023-01-19T06:02:28.775Z,8.20
2023-01-19T06:04:59.469Z,5.80
2023-01-19T06:07:29.796Z,6.20
2023-01-19T06:10:00.156Z,4.80
2023-01-19T06:12:30.509Z,9.30
2023-01-19T06:15:01.027Z,5.20
2023-01-19T06:17:32.547Z,7.30
2023-01-19T06:20:03.606Z,8.40
2023-01-19T06:22:34.103Z,5.20
2023-01-19T06:25:04.792Z,5.70
2023-01-19T06:27:36.378Z,5.50
2023-01-19T06:30:08.211Z,5.20
2023-01-19T06:32:38.585Z,5.00
2023-01-19T06:35:10.342Z,7.50
2023-01-19T06:37:41.131Z,4.20
2023-01-19T06:40:14.482Z,5.50
2023-01-19T06:42:45.717Z,6.10
2023-01-19T06:45:16.436Z,6.70
2023-01-19T06:47:49.440Z,6.20
2023-01-19T06:50:20.684Z,4.50
2023-01-19T06:52:53.623Z,6.10
2023-01-19T06:55:24.416Z,8.50
2023-01-19T06:58:01.864Z,6.00
2023-01-19T07:00:32.516Z,4.50
2023-01-19T07:03:03.818Z,7.60
2023-01-19T07:05:37.945Z,9.50
2023-01-19T07:08:08.489Z,6.10
2023-01-19T07:11:26.743Z,6.60
2023-01-19T07:13:30.249Z,5.50
2023-01-19T07:16:00.751Z,7.90
2023-01-19T07:18:31.817Z,7.10
2023-01-19T07:21:02.409Z,9.10
2023-01-19T07:23:33.026Z,7.50
2023-01-19T07:26:03.875Z,5.20
2023-01-19T07:28:34.263Z,10.00
2023-01-19T07:31:05.128Z,6.10
2023-01-19T07:33:35.889Z,8.90
2023-01-19T07:36:07.898Z,6.00
2023-01-19T07:38:38.629Z,8.00
2023-01-19T07:41:10.981Z,6.20
2023-01-19T07:43:41.311Z,5.70
2023-01-19T07:46:11.756Z,7.60
2023-01-19T07:48:44.335Z,8.40
2023-01-19T07:51:18.125Z,6.20
2023-01-19T07:53:50.541Z,4.50
2023-01-19T07:56:22.038Z,7.60
2023-01-19T07:58:52.880Z,7.40
2023-01-19T08:01:25.987Z,8.00
2023-01-19T08:03:56.356Z,10.10
2023-01-19T08:06:33.743Z,7.60
2023-01-19T08:09:05.694Z,7.00
2023-01-19T08:11:36.728Z,5.80
2023-01-19T08:14:08.173Z,5.60
2023-01-19T08:16:38.743Z,7.30
2023-01-19T08:19:09.294Z,5.70
2023-01-19T08:21:39.931Z,6.00
2023-01-19T08:24:21.445Z,8.10
2023-01-19T08:26:52.043Z,6.50
2023-01-19T08:29:22.407Z,7.70
2023-01-19T08:31:55.456Z,6.60
2023-01-19T08:34:26.203Z,7.00
2023-01-19T08:36:56.839Z,5.80
2023-01-19T08:39:27.403Z,10.90
2023-01-19T08:41:59.227Z,8.20
2023-01-19T08:44:29.614Z,5.70
2023-01-19T08:47:00.768Z,5.70
2023-01-19T08:49:31.359Z,5.40
2023-01-19T08:52:03.071Z,6.50
2023-01-19T08:54:33.600Z,6.00
2023-01-19T08:57:04.077Z,4.40
2023-01-19T08:59:34.990Z,6.80
2023-01-19T09:02:05.421Z,6.90
2023-01-19T09:04:36.384Z,6.30
2023-01-19T09:09:43.476Z,5.90
2023-01-19T09:12:14.352Z,6.10
2023-01-19T09:14:44.740Z,6.80
2023-01-19T09:17:18.094Z,6.30
2023-01-19T09:19:48.432Z,6.80
2023-01-19T09:22:18.878Z,4.50
2023-01-19T09:24:49.972Z,6.20
2023-01-19T09:27:20.447Z,6.60
2023-01-19T09:29:54.025Z,6.00
2023-01-19T09:32:24.623Z,9.30
2023-01-19T09:34:56.513Z,6.40
2023-01-19T09:37:27.303Z,6.90
2023-01-19T09:39:57.908Z,5.90
2023-01-19T09:42:34.445Z,7.40
2023-01-19T09:45:11.435Z,6.70
2023-01-19T09:47:43.020Z,5.70
2023-01-19T09:50:21.816Z,6.50
2023-01-19T09:53:01.557Z,6.50
2023-01-19T09:55:33.227Z,6.20
2023-01-19T09:58:04.868Z,5.70
2023-01-19T10:00:35.347Z,5.40
2023-01-19T10:03:16.183Z,6.10
2023-01-19T10:05:50.503Z,7.60
2023-01-19T10:08:32.107Z,5.40
2023-01-19T10:11:02.904Z,6.10
2023-01-19T10:13:41.330Z,7.10
2023-01-19T10:16:25.814Z,5.50
2023-01-19T10:19:00.269Z,5.30
2023-01-19T10:21:35.541Z,5.10
2023-01-19T10:24:12.113Z,6.60
2023-01-19T10:26:48.081Z,6.50
2023-01-19T10:29:27.412Z,4.50
2023-01-19T10:32:05.826Z,8.50
2023-01-19T10:34:36.681Z,4.20
2023-01-19T10:37:18.884Z,5.60
2023-01-19T10:39:54.126Z,6.00
2023-01-19T10:42:24.696Z,5.50
2023-01-19T10:44:55.666Z,5.80
2023-01-19T10:47:37.042Z,6.10
2023-01-19T10:50:26.419Z,6.20
2023-01-19T10:52:58.445Z,4.90
2023-01-19T10:55:31.796Z,4.70
2023-01-19T10:58:03.092Z,6.80
2023-01-19T11:00:38.125Z,4.70
2023-01-19T11:03:25.444Z,6.70
2023-01-19T11:06:16.357Z,4.80
2023-01-19T11:08:48.398Z,6.10
2023-01-19T11:11:20.866Z,5.60
2023-01-19T11:14:08.567Z,3.80
2023-01-19T11:16:40.270Z,5.30
2023-01-19T11:19:23.094Z,6.20
2023-01-19T11:21:54.673Z,5.80
2023-01-19T11:24:25.731Z,6.00
2023-01-19T11:27:03.032Z,4.80
2023-01-19T11:29:33.508Z,5.90
2023-01-19T11:32:20.379Z,5.00
2023-01-19T11:34:51.388Z,4.10
2023-01-19T11:37:34.523Z,5.10
2023-01-19T11:40:14.432Z,4.00
2023-01-19T11:42:45.237Z,5.80
2023-01-19T11:45:19.856Z,4.20
2023-01-19T11:47:52.573Z,6.30
2023-01-19T11:50:29.422Z,7.50
2023-01-19T11:53:05.669Z,10.10
2023-01-19T11:55:42.821Z,6.40
2023-01-19T11:58:17.853Z,4.50
2023-01-19T12:00:53.024Z,4.20
2023-01-19T12:03:30.569Z,5.20
2023-01-19T12:06:05.665Z,5.70
2023-01-19T12:08:40.976Z,3.80
2023-01-19T12:11:17.167Z,4.30
2023-01-19T12:13:49.368Z,3.90
2023-01-19T12:16:23.801Z,3.60
2023-01-19T12:18:57.224Z,3.40
2023-01-19T12:21:27.612Z,4.40
2023-01-19T12:24:11.375Z,4.30
2023-01-19T12:26:49.816Z,3.90
2023-01-19T12:29:24.943Z,3.60
2023-01-19T12:32:20.058Z,3.30
2023-01-19T12:34:51.917Z,4.10
2023-01-19T12:37:37.333Z,3.50
2023-01-19T12:40:24.848Z,5.60
2023-01-19T12:43:00.227Z,3.30
2023-01-19T12:45:35.559Z,3.40
2023-01-19T12:48:11.572Z,3.80
2023-01-19T12:50:47.060Z,3.00
2023-01-19T12:53:22.592Z,4.10
2023-01-19T12:56:05.986Z,3.00
2023-01-19T12:58:37.250Z,3.60
2023-01-19T13:01:21.058Z,4.20
2023-01-19T13:04:28.787Z,5.80
2023-01-19T13:09:48.351Z,2.90
2023-01-19T13:12:26.230Z,3.60
2023-01-19T13:15:30.153Z,2.70
2023-01-19T13:18:01.812Z,3.40
2023-01-19T13:20:43.275Z,2.80
2023-01-19T13:23:23.917Z,2.60
2023-01-19T13:26:07.462Z,3.60
2023-01-19T13:28:42.759Z,4.70
2023-01-19T13:31:14.397Z,3.60
2023-01-19T13:33:51.712Z,2.90
2023-01-19T13:36:31.616Z,4.50
2023-01-19T13:39:04.762Z,3.80
2023-01-19T13:41:40.620Z,2.90
2023-01-19T13:44:19.415Z,2.90
2023-01-19T13:46:51.237Z,3.20
2023-01-19T13:49:28.471Z,8.10
2023-01-19T13:52:13.263Z,3.90
2023-01-19T13:54:53.203Z,3.10
2023-01-19T13:57:27.422Z,3.60
2023-01-19T14:00:19.471Z,4.20
2023-01-19T14:02:59.975Z,4.20
2023-01-19T14:05:32.582Z,3.10
2023-01-19T14:08:13.612Z,4.00
2023-01-19T14:10:45.863Z,3.30
2023-01-19T14:13:18.905Z,3.30
2023-01-19T14:15:51.855Z,8.30
2023-01-19T14:18:31.006Z,6.70
2023-01-19T14:21:04.188Z,7.10
2023-01-19T14:23:47.136Z,4.10
2023-01-19T14:26:46.704Z,3.20
2023-01-19T14:29:28.307Z,3.10
2023-01-19T14:32:14.805Z,3.30
2023-01-19T14:34:47.625Z,3.30
2023-01-19T14:37:24.303Z,3.70
2023-01-19T14:39:58.115Z,3.00
2023-01-19T14:42:32.510Z,2.90
2023-01-19T14:45:05.821Z,2.90
2023-01-19T14:47:39.628Z,3.10
2023-01-19T14:50:19.940Z,3.10
2023-01-19T14:52:56.287Z,3.30
2023-01-19T14:55:34.377Z,2.50
2023-01-19T15:00:34.253Z,4.20
2023-01-19T15:03:06.129Z,2.90
2023-01-19T15:05:37.058Z,3.30
2023-01-19T15:08:08.554Z,2.90
2023-01-19T15:10:39.177Z,2.50
2023-01-19T15:13:16.948Z,2.50
2023-01-19T15:15:49.750Z,2.70
2023-01-19T15:18:26.204Z,4.80
2023-01-19T15:21:02.593Z,2.90
2023-01-19T15:23:34.101Z,2.40
2023-01-19T15:26:05.675Z,2.70
2023-01-19T15:28:36.029Z,4.10
2023-01-19T15:31:06.652Z,3.30
2023-01-19T15:33:37.340Z,3.60
2023-01-19T15:36:11.249Z,2.90
2023-01-19T15:38:41.632Z,2.50
2023-01-19T15:41:16.077Z,3.90
2023-01-19T15:43:47.991Z,3.10
2023-01-19T15:46:21.613Z,3.00
2023-01-19T15:48:52.853Z,4.30
2023-01-19T15:51:26.116Z,4.30
2023-01-19T15:53:57.299Z,2.90
2023-01-19T15:56:30.217Z,3.80
2023-01-19T15:59:02.543Z,5.20
2023-01-19T16:01:34.723Z,5.80
2023-01-19T16:04:07.160Z,5.10
2023-01-19T16:06:37.576Z,5.80
2023-01-19T16:09:08.195Z,4.50
2023-01-19T16:11:38.659Z,5.80
2023-01-19T16:14:09.020Z,3.70
2023-01-19T16:16:39.780Z,8.40
2023-01-19T16:19:10.131Z,6.40
2023-01-19T16:21:40.490Z,5.30
2023-01-19T16:24:10.977Z,5.10
2023-01-19T16:26:41.674Z,5.50
2023-01-19T16:29:12.218Z,4.60
2023-01-19T16:31:45.331Z,4.60
2023-01-19T16:34:16.397Z,5.20
2023-01-19T16:36:46.759Z,4.90
2023-01-19T16:39:17.977Z,4.70
2023-01-19T16:41:48.674Z,6.60
2023-01-19T16:44:19.517Z,5.30
2023-01-19T16:46:50.641Z,4.50
2023-01-19T16:49:22.947Z,4.20
2023-01-19T16:51:55.274Z,4.20
2023-01-19T16:54:27.210Z,9.00
2023-01-19T16:56:58.610Z,6.60
2023-01-19T16:59:29.274Z,4.30
2023-01-19T17:02:00.681Z,4.80
2023-01-19T17:04:31.353Z,6.50
2023-01-19T17:07:01.976Z,7.40
2023-01-19T17:09:32.353Z,9.00
2023-01-19T17:12:03.039Z,7.20
2023-01-19T17:14:43.089Z,6.50
2023-01-19T17:17:13.957Z,7.80
2023-01-19T17:19:45.102Z,7.80
2023-01-19T17:22:15.746Z,8.90
2023-01-19T17:24:47.457Z,7.80
2023-01-19T17:27:18.470Z,5.30
2023-01-19T17:29:50.030Z,7.00
2023-01-19T17:32:21.344Z,9.10
2023-01-19T17:34:52.528Z,7.10
2023-01-19T17:37:23.867Z,5.80
2023-01-19T17:39:55.460Z,5.40
2023-01-19T17:42:25.819Z,9.00
2023-01-19T17:44:56.554Z,5.70
2023-01-19T17:47:26.882Z,6.40
2023-01-19T17:49:57.245Z,4.80
2023-01-19T17:52:27.648Z,6.00
2023-01-19T17:55:08.222Z,4.70
2023-01-19T17:57:38.615Z,8.10
2023-01-19T18:00:11.466Z,5.20
2023-01-19T18:02:42.362Z,5.90
2023-01-19T18:05:14.282Z,6.40
2023-01-19T18:07:45.243Z,5.20
2023-01-19T18:10:16.109Z,7.70
2023-01-19T18:12:47.289Z,8.60
2023-01-19T18:15:17.766Z,8.20
2023-01-19T18:17:48.275Z,7.40
2023-01-19T18:20:19.299Z,4.50
2023-01-19T18:22:49.698Z,10.10
2023-01-19T18:25:20.140Z,6.70
2023-01-19T18:27:50.552Z,8.20
2023-01-19T18:30:24.828Z,10.30
2023-01-19T18:32:55.892Z,7.70
2023-01-19T18:35:28.790Z,6.10
2023-01-19T18:37:59.444Z,10.50
2023-01-19T18:40:30.019Z,8.00
2023-01-19T18:43:00.673Z,6.90
2023-01-19T18:45:31.312Z,10.80
2023-01-19T18:48:03.167Z,7.90
2023-01-19T18:50:34.653Z,6.90
2023-01-19T18:53:05.767Z,7.10
2023-01-19T18:55:36.608Z,7.60
2023-01-19T18:58:08.788Z,6.80
2023-01-19T19:00:39.226Z,10.20
2023-01-19T19:03:13.448Z,11.60
2023-01-19T19:05:44.010Z,7.60
2023-01-19T19:08:14.976Z,6.60
2023-01-19T19:10:45.934Z,9.50
2023-01-19T19:13:17.705Z,15.50
2023-01-19T19:15:48.572Z,12.70
2023-01-19T19:18:19.315Z,10.40
2023-01-19T19:20:49.615Z,7.80
2023-01-19T19:23:20.477Z,8.70
2023-01-19T19:25:51.405Z,7.50
2023-01-19T19:28:22.002Z,7.70
2023-01-19T19:31:02.686Z,9.70
2023-01-19T19:33:33.630Z,5.20
2023-01-19T19:36:04.663Z,7.50
2023-01-19T19:38:36.746Z,8.30
2023-01-19T19:41:13.304Z,6.10
2023-01-19T19:43:43.609Z,6.30
2023-01-19T19:46:15.996Z,8.00
2023-01-19T19:48:46.356Z,9.90
2023-01-19T19:51:19.512Z,9.50
2023-01-19T19:53:51.778Z,9.20
2023-01-19T19:56:24.163Z,8.20
2023-01-19T19:58:57.048Z,10.20
2023-01-19T20:01:32.663Z,7.00
2023-01-19T20:04:07.962Z,8.70
2023-01-19T20:06:39.866Z,11.90
2023-01-19T20:09:14.194Z,7.90
2023-01-19T20:11:46.685Z,12.40
2023-01-19T20:14:18.247Z,9.00
2023-01-19T20:16:49.541Z,11.00
2023-01-19T20:19:19.996Z,9.60
2023-01-19T20:21:50.602Z,8.70
2023-01-19T20:24:22.539Z,15.20
2023-01-19T20:26:56.267Z,11.70
2023-01-19T20:29:26.751Z,13.00
2023-01-19T20:31:58.338Z,13.70
2023-01-19T20:34:33.302Z,12.40
2023-01-19T20:37:06.043Z,15.90
2023-01-19T20:39:37.203Z,13.90
2023-01-19T20:42:11.222Z,13.50
2023-01-19T20:44:42.354Z,15.70
2023-01-19T20:47:12.844Z,13.70
2023-01-19T20:49:43.467Z,14.40
2023-01-19T20:52:13.980Z,11.80
2023-01-19T20:54:44.626Z,11.30
2023-01-19T20:57:15.317Z,13.80
2023-01-19T20:59:45.821Z,13.90
2023-01-19T21:02:17.446Z,12.60
2023-01-19T21:04:48.076Z,15.80
2023-01-19T21:07:19.014Z,15.50
2023-01-19T21:09:49.798Z,16.20
2023-01-19T21:12:23.437Z,12.10
2023-01-19T21:14:54.089Z,11.90
2023-01-19T21:17:24.869Z,11.30
2023-01-19T21:19:55.850Z,9.90
2023-01-19T21:22:26.303Z,11.50
2023-01-19T21:24:56.609Z,14.30
2023-01-19T21:27:27.247Z,12.80
2023-01-19T21:29:58.563Z,10.80
2023-01-19T21:32:29.215Z,10.70
2023-01-19T21:34:59.949Z,9.50
2023-01-19T21:37:31.382Z,10.00
2023-01-19T21:40:01.936Z,8.60
2023-01-19T21:42:32.484Z,9.60
2023-01-19T21:45:02.982Z,16.10
2023-01-19T21:47:35.199Z,11.70
2023-01-19T21:50:06.104Z,14.40
2023-01-19T21:52:37.118Z,16.70
2023-01-19T21:55:08.808Z,15.10
2023-01-19T21:57:39.454Z,13.80
2023-01-19T22:00:12.637Z,15.10
2023-01-19T22:02:46.887Z,15.80
2023-01-19T22:05:26.661Z,13.80
2023-01-19T22:07:57.828Z,17.00
2023-01-19T22:10:28.536Z,15.10
2023-01-19T22:12:59.238Z,16.60
2023-01-19T22:15:31.589Z,15.30
2023-01-19T22:18:02.375Z,10.40
2023-01-19T22:20:33.252Z,12.40
2023-01-19T22:23:04.141Z,10.60
2023-01-19T22:25:36.463Z,10.80
2023-01-19T22:28:06.879Z,10.10
2023-01-19T22:30:37.370Z,12.60
2023-01-19T22:33:08.544Z,12.40
2023-01-19T22:35:39.495Z,20.70
2023-01-19T22:38:09.877Z,18.30
2023-01-19T22:40:40.531Z,19.10
2023-01-19T22:43:10.896Z,14.80
2023-01-19T22:45:44.041Z,15.10
2023-01-19T22:48:17.924Z,12.50
2023-01-19T22:50:48.855Z,10.30
2023-01-19T22:53:19.279Z,12.50
2023-01-19T22:55:49.869Z,8.80
2023-01-19T22:58:21.541Z,12.10
2023-01-19T23:00:52.303Z,13.20
2023-01-19T23:03:23.325Z,12.40
2023-01-19T23:05:54.651Z,11.90
2023-01-19T23:08:25.412Z,13.80
2023-01-19T23:10:55.804Z,12.00
2023-01-19T23:13:26.333Z,12.70
2023-01-19T23:15:58.305Z,8.80
2023-01-19T23:18:29.100Z,14.00
2023-01-19T23:21:05.094Z,14.70
2023-01-19T23:23:35.924Z,14.20
2023-01-19T23:26:08.781Z,12.50
2023-01-19T23:28:39.735Z,15.00
2023-01-19T23:31:18.948Z,15.50
2023-01-19T23:33:49.943Z,11.20
2023-01-19T23:36:21.882Z,11.40
2023-01-19T23:38:53.864Z,11.70
2023-01-19T23:41:25.283Z,12.90
2023-01-19T23:43:56.046Z,11.60
2023-01-19T23:46:26.477Z,11.40
2023-01-19T23:48:57.317Z,10.80
2023-01-19T23:51:30.062Z,15.80
2023-01-19T23:54:04.012Z,13.30
2023-01-19T23:56:36.845Z,11.60
2023-01-19T23:59:08.769Z,12.60
